sensor_id;sensor_type;location;lat;lon;timestamp;temperature;humidity
27890;DHT22;15238;49.082;9.102;2024-03-02T00:01:55;6.30;99.90
27890;DHT22;15238;49.082;9.102;2024-03-02T00:03:56;6.30;99.90
27890;DHT22;15238;49.082;9.102;2024-03-02T00:05:56;6.30;99.90
27890;DHT22;15238;49.082;9.102;2024-03-02T00:07:58;6.30;99.90
27890;DHT22;15238;49.082;9.102;2024-03-02T00:09:59;6.40;99.90
27890;DHT22;15238;49.082;9.102;2024-03-02T00:12:00;6.40;99.90
27890;DHT22;15238;49.082;9.102;2024-03-02T00:14:01;6.40;99.90
27890;DHT22;15238;49.082;9.102;2024-03-02T00:16:01;6.40;99.90
27890;DHT22;15238;49.082;9.102;2024-03-02T00:18:05;6.40;99.90
27890;DHT22;15238;49.082;9.102;2024-03-02T00:20:09;6.40;99.90
27890;DHT22;15238;49.082;9.102;2024-03-02T00:22:10;6.40;99.90
27890;DHT22;15238;49.082;9.102;2024-03-02T00:24:45;6.40;99.90
27890;DHT22;15238;49.082;9.102;2024-03-02T00:26:47;6.40;99.90
27890;DHT22;15238;49.082;9.102;2024-03-02T00:28:48;6.40;99.90
27890;DHT22;15238;49.082;9.102;2024-03-02T00:33:08;6.40;99.90
27890;DHT22;15238;49.082;9.102;2024-03-02T00:35:08;6.40;99.90
27890;DHT22;15238;49.082;9.102;2024-03-02T00:37:11;6.40;99.90
27890;DHT22;15238;49.082;9.102;2024-03-02T00:39:12;6.30;99.90
27890;DHT22;15238;49.082;9.102;2024-03-02T00:41:26;6.30;99.90
27890;DHT22;15238;49.082;9.102;2024-03-02T00:43:56;6.30;99.90
27890;DHT22;15238;49.082;9.102;2024-03-02T00:45:57;6.30;99.90
27890;DHT22;15238;49.082;9.102;2024-03-02T00:47:57;6.20;99.90
27890;DHT22;15238;49.082;9.102;2024-03-02T00:49:58;6.20;99.90
27890;DHT22;15238;49.082;9.102;2024-03-02T00:51:59;6.20;99.90
27890;DHT22;15238;49.082;9.102;2024-03-02T00:54:01;6.20;99.90
27890;DHT22;15238;49.082;9.102;2024-03-02T00:56:09;6.20;99.90
27890;DHT22;15238;49.082;9.102;2024-03-02T00:58:11;6.30;99.90
27890;DHT22;15238;49.082;9.102;2024-03-02T01:00:12;6.30;99.90
27890;DHT22;15238;49.082;9.102;2024-03-02T01:02:15;6.30;99.90
27890;DHT22;15238;49.082;9.102;2024-03-02T01:04:16;6.30;99.90
27890;DHT22;15238;49.082;9.102;2024-03-02T01:06:16;6.20;99.90
27890;DHT22;15238;49.082;9.102;2024-03-02T01:08:17;6.30;99.90
27890;DHT22;15238;49.082;9.102;2024-03-02T01:10:17;6.20;99.90
27890;DHT22;15238;49.082;9.102;2024-03-02T01:12:18;6.20;99.90
27890;DHT22;15238;49.082;9.102;2024-03-02T01:14:18;6.20;99.90
27890;DHT22;15238;49.082;9.102;2024-03-02T01:16:19;6.10;99.90
27890;DHT22;15238;49.082;9.102;2024-03-02T01:18:20;6.10;99.90
27890;DHT22;15238;49.082;9.102;2024-03-02T01:20:20;6.10;99.90
27890;DHT22;15238;49.082;9.102;2024-03-02T01:22:23;6.10;99.90
27890;DHT22;15238;49.082;9.102;2024-03-02T01:24:25;6.10;99.90
27890;DHT22;15238;49.082;9.102;2024-03-02T01:26:26;6.10;99.90
27890;DHT22;15238;49.082;9.102;2024-03-02T01:28:26;6.10;99.90
27890;DHT22;15238;49.082;9.102;2024-03-02T01:30:27;6.10;99.90
27890;DHT22;15238;49.082;9.102;2024-03-02T01:32:27;6.10;99.90
27890;DHT22;15238;49.082;9.102;2024-03-02T01:34:28;6.10;99.90
27890;DHT22;15238;49.082;9.102;2024-03-02T01:36:28;6.10;99.90
27890;DHT22;15238;49.082;9.102;2024-03-02T01:38:29;6.00;99.90
27890;DHT22;15238;49.082;9.102;2024-03-02T01:40:29;6.00;99.90
27890;DHT22;15238;49.082;9.102;2024-03-02T01:42:30;6.00;99.90
27890;DHT22;15238;49.082;9.102;2024-03-02T01:44:31;5.90;99.90
27890;DHT22;15238;49.082;9.102;2024-03-02T01:46:31;5.90;99.90
27890;DHT22;15238;49.082;9.102;2024-03-02T01:48:32;5.90;99.90
27890;DHT22;15238;49.082;9.102;2024-03-02T01:50:33;5.90;99.90
27890;DHT22;15238;49.082;9.102;2024-03-02T01:52:33;5.90;99.90
27890;DHT22;15238;49.082;9.102;2024-03-02T01:54:34;6.00;99.90
27890;DHT22;15238;49.082;9.102;2024-03-02T01:56:34;5.90;99.90
27890;DHT22;15238;49.082;9.102;2024-03-02T01:58:35;5.90;99.90
27890;DHT22;15238;49.082;9.102;2024-03-02T02:00:36;5.80;99.90
27890;DHT22;15238;49.082;9.102;2024-03-02T02:02:37;5.80;99.90
27890;DHT22;15238;49.082;9.102;2024-03-02T02:04:37;5.70;99.90
27890;DHT22;15238;49.082;9.102;2024-03-02T02:06:38;5.70;99.90
27890;DHT22;15238;49.082;9.102;2024-03-02T02:08:39;5.70;99.90
27890;DHT22;15238;49.082;9.102;2024-03-02T02:10:39;5.60;99.90
27890;DHT22;15238;49.082;9.102;2024-03-02T02:12:40;5.70;99.90
27890;DHT22;15238;49.082;9.102;2024-03-02T02:14:47;5.60;99.90
27890;DHT22;15238;49.082;9.102;2024-03-02T02:16:49;5.60;99.90
27890;DHT22;15238;49.082;9.102;2024-03-02T02:18:49;5.60;99.90
27890;DHT22;15238;49.082;9.102;2024-03-02T02:20:50;5.60;99.90
27890;DHT22;15238;49.082;9.102;2024-03-02T02:23:01;5.60;99.90
27890;DHT22;15238;49.082;9.102;2024-03-02T02:25:02;5.50;99.90
27890;DHT22;15238;49.082;9.102;2024-03-02T02:27:03;5.50;99.90
27890;DHT22;15238;49.082;9.102;2024-03-02T02:29:03;5.50;99.90
27890;DHT22;15238;49.082;9.102;2024-03-02T02:31:04;5.50;99.90
27890;DHT22;15238;49.082;9.102;2024-03-02T02:33:04;5.50;99.90
27890;DHT22;15238;49.082;9.102;2024-03-02T02:35:05;5.40;99.90
27890;DHT22;15238;49.082;9.102;2024-03-02T02:37:06;5.40;99.90
27890;DHT22;15238;49.082;9.102;2024-03-02T02:39:08;5.30;99.90
27890;DHT22;15238;49.082;9.102;2024-03-02T02:41:11;5.20;99.90
27890;DHT22;15238;49.082;9.102;2024-03-02T02:43:11;5.20;99.90
27890;DHT22;15238;49.082;9.102;2024-03-02T02:45:12;5.20;99.90
27890;DHT22;15238;49.082;9.102;2024-03-02T02:47:14;5.10;99.90
27890;DHT22;15238;49.082;9.102;2024-03-02T02:49:15;5.00;99.90
27890;DHT22;15238;49.082;9.102;2024-03-02T02:51:16;5.00;99.90
27890;DHT22;15238;49.082;9.102;2024-03-02T02:53:17;4.90;99.90
27890;DHT22;15238;49.082;9.102;2024-03-02T02:55:17;4.90;99.90
27890;DHT22;15238;49.082;9.102;2024-03-02T02:57:18;4.80;99.90
27890;DHT22;15238;49.082;9.102;2024-03-02T02:59:18;4.80;99.90
27890;DHT22;15238;49.082;9.102;2024-03-02T03:01:19;4.70;99.90
27890;DHT22;15238;49.082;9.102;2024-03-02T03:03:19;4.80;99.90
27890;DHT22;15238;49.082;9.102;2024-03-02T03:05:20;4.70;99.90
27890;DHT22;15238;49.082;9.102;2024-03-02T03:07:20;4.60;99.90
27890;DHT22;15238;49.082;9.102;2024-03-02T03:09:21;4.70;99.90
27890;DHT22;15238;49.082;9.102;2024-03-02T03:11:21;4.70;99.90
27890;DHT22;15238;49.082;9.102;2024-03-02T03:13:23;4.70;99.90
27890;DHT22;15238;49.082;9.102;2024-03-02T03:15:23;4.70;99.90
27890;DHT22;15238;49.082;9.102;2024-03-02T03:17:24;4.80;99.90
27890;DHT22;15238;49.082;9.102;2024-03-02T03:19:24;4.70;99.90
27890;DHT22;15238;49.082;9.102;2024-03-02T03:21:25;4.70;99.90
27890;DHT22;15238;49.082;9.102;2024-03-02T03:23:25;4.70;99.90
27890;DHT22;15238;49.082;9.102;2024-03-02T03:25:26;4.70;99.90
27890;DHT22;15238;49.082;9.102;2024-03-02T03:27:26;4.60;99.90
27890;DHT22;15238;49.082;9.102;2024-03-02T03:29:27;4.60;99.90
27890;DHT22;15238;49.082;9.102;2024-03-02T03:31:28;4.60;99.90
27890;DHT22;15238;49.082;9.102;2024-03-02T03:33:29;4.60;99.90
27890;DHT22;15238;49.082;9.102;2024-03-02T03:35:29;4.50;99.90
27890;DHT22;15238;49.082;9.102;2024-03-02T03:37:30;4.40;99.90
27890;DHT22;15238;49.082;9.102;2024-03-02T03:39:34;4.40;99.90
27890;DHT22;15238;49.082;9.102;2024-03-02T03:41:35;4.40;99.90
27890;DHT22;15238;49.082;9.102;2024-03-02T03:43:36;4.30;99.90
27890;DHT22;15238;49.082;9.102;2024-03-02T03:45:36;4.30;99.90
27890;DHT22;15238;49.082;9.102;2024-03-02T03:47:37;4.30;99.90
27890;DHT22;15238;49.082;9.102;2024-03-02T03:49:37;4.30;99.90
27890;DHT22;15238;49.082;9.102;2024-03-02T03:51:38;4.30;99.90
27890;DHT22;15238;49.082;9.102;2024-03-02T03:53:38;4.40;99.90
27890;DHT22;15238;49.082;9.102;2024-03-02T03:55:39;4.40;99.90
27890;DHT22;15238;49.082;9.102;2024-03-02T03:57:40;4.50;99.90
27890;DHT22;15238;49.082;9.102;2024-03-02T03:59:40;4.60;99.90
27890;DHT22;15238;49.082;9.102;2024-03-02T04:01:41;4.60;99.90
27890;DHT22;15238;49.082;9.102;2024-03-02T04:03:41;4.70;99.90
27890;DHT22;15238;49.082;9.102;2024-03-02T04:05:41;4.70;99.90
27890;DHT22;15238;49.082;9.102;2024-03-02T04:07:42;4.70;99.90
27890;DHT22;15238;49.082;9.102;2024-03-02T04:09:43;4.80;99.90
27890;DHT22;15238;49.082;9.102;2024-03-02T04:11:43;4.80;99.90
27890;DHT22;15238;49.082;9.102;2024-03-02T04:13:44;4.80;99.90
27890;DHT22;15238;49.082;9.102;2024-03-02T04:15:44;4.80;99.90
27890;DHT22;15238;49.082;9.102;2024-03-02T04:17:45;4.80;99.90
27890;DHT22;15238;49.082;9.102;2024-03-02T04:19:45;4.80;99.90
27890;DHT22;15238;49.082;9.102;2024-03-02T04:21:46;4.80;99.90
27890;DHT22;15238;49.082;9.102;2024-03-02T04:23:46;4.80;99.90
27890;DHT22;15238;49.082;9.102;2024-03-02T04:25:47;4.80;99.90
27890;DHT22;15238;49.082;9.102;2024-03-02T04:27:47;4.80;99.90
27890;DHT22;15238;49.082;9.102;2024-03-02T04:29:48;4.80;99.90
27890;DHT22;15238;49.082;9.102;2024-03-02T04:31:48;4.80;99.90
27890;DHT22;15238;49.082;9.102;2024-03-02T04:33:49;4.90;99.90
27890;DHT22;15238;49.082;9.102;2024-03-02T04:35:49;4.90;99.90
27890;DHT22;15238;49.082;9.102;2024-03-02T04:37:50;4.90;99.90
27890;DHT22;15238;49.082;9.102;2024-03-02T04:39:50;4.90;99.90
27890;DHT22;15238;49.082;9.102;2024-03-02T04:41:51;4.90;99.90
27890;DHT22;15238;49.082;9.102;2024-03-02T04:43:51;4.90;99.90
27890;DHT22;15238;49.082;9.102;2024-03-02T04:45:52;4.90;99.90
27890;DHT22;15238;49.082;9.102;2024-03-02T04:47:52;4.90;99.90
27890;DHT22;15238;49.082;9.102;2024-03-02T04:49:53;4.90;99.90
27890;DHT22;15238;49.082;9.102;2024-03-02T04:51:54;4.90;99.90
27890;DHT22;15238;49.082;9.102;2024-03-02T04:53:54;4.90;99.90
27890;DHT22;15238;49.082;9.102;2024-03-02T04:55:55;4.90;99.90
27890;DHT22;15238;49.082;9.102;2024-03-02T04:57:55;4.90;99.90
27890;DHT22;15238;49.082;9.102;2024-03-02T04:59:56;4.90;99.90
27890;DHT22;15238;49.082;9.102;2024-03-02T05:01:56;5.00;99.90
27890;DHT22;15238;49.082;9.102;2024-03-02T05:03:58;5.00;99.90
27890;DHT22;15238;49.082;9.102;2024-03-02T05:05:58;5.10;99.90
27890;DHT22;15238;49.082;9.102;2024-03-02T05:07:59;5.10;99.90
27890;DHT22;15238;49.082;9.102;2024-03-02T05:09:59;5.10;99.90
27890;DHT22;15238;49.082;9.102;2024-03-02T05:12:00;5.10;99.90
27890;DHT22;15238;49.082;9.102;2024-03-02T05:14:26;5.20;99.90
27890;DHT22;15238;49.082;9.102;2024-03-02T05:16:27;5.20;99.90
27890;DHT22;15238;49.082;9.102;2024-03-02T05:18:27;5.20;99.90
27890;DHT22;15238;49.082;9.102;2024-03-02T05:20:28;5.10;99.90
27890;DHT22;15238;49.082;9.102;2024-03-02T05:22:28;5.10;99.90
27890;DHT22;15238;49.082;9.102;2024-03-02T05:24:29;5.10;99.90
27890;DHT22;15238;49.082;9.102;2024-03-02T05:26:29;5.20;99.90
27890;DHT22;15238;49.082;9.102;2024-03-02T05:28:30;5.20;99.90
27890;DHT22;15238;49.082;9.102;2024-03-02T05:30:30;5.30;99.90
27890;DHT22;15238;49.082;9.102;2024-03-02T05:32:31;5.20;99.90
27890;DHT22;15238;49.082;9.102;2024-03-02T05:34:31;5.20;99.90
27890;DHT22;15238;49.082;9.102;2024-03-02T05:36:33;5.20;99.90
27890;DHT22;15238;49.082;9.102;2024-03-02T05:38:36;5.20;99.90
27890;DHT22;15238;49.082;9.102;2024-03-02T05:40:37;5.20;99.90
27890;DHT22;15238;49.082;9.102;2024-03-02T05:42:37;5.20;99.90
27890;DHT22;15238;49.082;9.102;2024-03-02T05:44:38;5.20;99.90
27890;DHT22;15238;49.082;9.102;2024-03-02T05:46:39;5.20;99.90
27890;DHT22;15238;49.082;9.102;2024-03-02T05:48:39;5.20;99.90
27890;DHT22;15238;49.082;9.102;2024-03-02T05:50:39;5.20;99.90
27890;DHT22;15238;49.082;9.102;2024-03-02T05:52:40;5.20;99.90
27890;DHT22;15238;49.082;9.102;2024-03-02T05:54:40;5.20;99.90
27890;DHT22;15238;49.082;9.102;2024-03-02T05:56:41;5.20;99.90
27890;DHT22;15238;49.082;9.102;2024-03-02T05:58:41;5.20;99.90
27890;DHT22;15238;49.082;9.102;2024-03-02T06:01:00;5.20;99.90
27890;DHT22;15238;49.082;9.102;2024-03-02T06:03:01;5.20;99.90
27890;DHT22;15238;49.082;9.102;2024-03-02T06:05:01;5.20;99.90
27890;DHT22;15238;49.082;9.102;2024-03-02T06:07:02;5.20;99.90
27890;DHT22;15238;49.082;9.102;2024-03-02T06:09:04;5.20;99.90
27890;DHT22;15238;49.082;9.102;2024-03-02T06:11:13;5.20;99.90
27890;DHT22;15238;49.082;9.102;2024-03-02T06:13:14;5.10;99.90
27890;DHT22;15238;49.082;9.102;2024-03-02T06:15:14;5.10;99.90
27890;DHT22;15238;49.082;9.102;2024-03-02T06:17:14;5.10;99.90
27890;DHT22;15238;49.082;9.102;2024-03-02T06:19:15;5.10;99.90
27890;DHT22;15238;49.082;9.102;2024-03-02T06:21:15;5.10;99.90
27890;DHT22;15238;49.082;9.102;2024-03-02T06:23:16;5.10;99.90
27890;DHT22;15238;49.082;9.102;2024-03-02T06:25:16;5.10;99.90
27890;DHT22;15238;49.082;9.102;2024-03-02T06:27:17;5.20;99.90
27890;DHT22;15238;49.082;9.102;2024-03-02T06:29:17;5.20;99.90
27890;DHT22;15238;49.082;9.102;2024-03-02T06:31:18;5.20;99.90
27890;DHT22;15238;49.082;9.102;2024-03-02T06:33:18;5.20;99.90
27890;DHT22;15238;49.082;9.102;2024-03-02T06:35:19;5.30;99.90
27890;DHT22;15238;49.082;9.102;2024-03-02T06:37:19;5.30;99.90
27890;DHT22;15238;49.082;9.102;2024-03-02T06:39:20;5.30;99.90
27890;DHT22;15238;49.082;9.102;2024-03-02T06:41:20;5.40;99.90
27890;DHT22;15238;49.082;9.102;2024-03-02T06:43:21;5.40;99.90
27890;DHT22;15238;49.082;9.102;2024-03-02T06:45:25;5.40;99.90
27890;DHT22;15238;49.082;9.102;2024-03-02T06:47:25;5.40;99.90
27890;DHT22;15238;49.082;9.102;2024-03-02T06:49:26;5.50;99.90
27890;DHT22;15238;49.082;9.102;2024-03-02T06:51:26;5.50;99.90
27890;DHT22;15238;49.082;9.102;2024-03-02T06:53:27;5.60;99.90
27890;DHT22;15238;49.082;9.102;2024-03-02T06:55:28;5.60;99.90
27890;DHT22;15238;49.082;9.102;2024-03-02T06:57:29;5.70;99.90
27890;DHT22;15238;49.082;9.102;2024-03-02T06:59:29;5.70;99.90
27890;DHT22;15238;49.082;9.102;2024-03-02T07:01:30;5.80;99.90
27890;DHT22;15238;49.082;9.102;2024-03-02T07:03:30;5.80;99.90
27890;DHT22;15238;49.082;9.102;2024-03-02T07:05:31;5.90;99.90
27890;DHT22;15238;49.082;9.102;2024-03-02T07:07:31;5.90;99.90
27890;DHT22;15238;49.082;9.102;2024-03-02T07:09:32;6.00;99.90
27890;DHT22;15238;49.082;9.102;2024-03-02T07:11:32;6.00;99.90
27890;DHT22;15238;49.082;9.102;2024-03-02T07:13:33;6.00;99.90
27890;DHT22;15238;49.082;9.102;2024-03-02T07:15:33;6.10;99.90
27890;DHT22;15238;49.082;9.102;2024-03-02T07:17:37;6.10;99.90
27890;DHT22;15238;49.082;9.102;2024-03-02T07:19:38;6.20;99.90
27890;DHT22;15238;49.082;9.102;2024-03-02T07:21:39;6.20;99.90
27890;DHT22;15238;49.082;9.102;2024-03-02T07:23:40;6.20;99.90
27890;DHT22;15238;49.082;9.102;2024-03-02T07:25:40;6.20;99.90
27890;DHT22;15238;49.082;9.102;2024-03-02T07:27:41;6.20;99.90
27890;DHT22;15238;49.082;9.102;2024-03-02T07:29:42;6.30;99.90
27890;DHT22;15238;49.082;9.102;2024-03-02T07:31:43;6.30;99.90
27890;DHT22;15238;49.082;9.102;2024-03-02T07:33:44;6.40;99.90
27890;DHT22;15238;49.082;9.102;2024-03-02T07:35:46;6.40;99.90
27890;DHT22;15238;49.082;9.102;2024-03-02T07:37:47;6.40;99.90
27890;DHT22;15238;49.082;9.102;2024-03-02T07:39:47;6.40;99.90
27890;DHT22;15238;49.082;9.102;2024-03-02T07:41:48;6.40;99.90
27890;DHT22;15238;49.082;9.102;2024-03-02T07:43:49;6.40;99.90
27890;DHT22;15238;49.082;9.102;2024-03-02T07:45:49;6.40;99.90
27890;DHT22;15238;49.082;9.102;2024-03-02T07:47:50;6.50;99.90
27890;DHT22;15238;49.082;9.102;2024-03-02T07:49:51;6.50;99.90
27890;DHT22;15238;49.082;9.102;2024-03-02T07:51:51;6.50;99.90
27890;DHT22;15238;49.082;9.102;2024-03-02T07:53:51;6.50;99.90
27890;DHT22;15238;49.082;9.102;2024-03-02T07:55:52;6.50;99.90
27890;DHT22;15238;49.082;9.102;2024-03-02T07:57:53;6.50;99.90
27890;DHT22;15238;49.082;9.102;2024-03-02T07:59:53;6.50;99.90
27890;DHT22;15238;49.082;9.102;2024-03-02T08:01:54;6.50;99.90
27890;DHT22;15238;49.082;9.102;2024-03-02T08:03:57;6.60;99.90
27890;DHT22;15238;49.082;9.102;2024-03-02T08:05:58;6.60;99.90
27890;DHT22;15238;49.082;9.102;2024-03-02T08:07:59;6.60;99.90
27890;DHT22;15238;49.082;9.102;2024-03-02T08:10:00;6.60;99.90
27890;DHT22;15238;49.082;9.102;2024-03-02T08:12:01;6.60;99.90
27890;DHT22;15238;49.082;9.102;2024-03-02T08:14:01;6.70;99.90
27890;DHT22;15238;49.082;9.102;2024-03-02T08:16:02;6.70;99.90
27890;DHT22;15238;49.082;9.102;2024-03-02T08:18:03;6.70;99.90
27890;DHT22;15238;49.082;9.102;2024-03-02T08:20:05;6.80;99.90
27890;DHT22;15238;49.082;9.102;2024-03-02T08:22:06;6.80;99.90
27890;DHT22;15238;49.082;9.102;2024-03-02T08:24:07;6.80;99.90
27890;DHT22;15238;49.082;9.102;2024-03-02T08:26:11;6.80;99.90
27890;DHT22;15238;49.082;9.102;2024-03-02T08:28:11;6.80;99.90
27890;DHT22;15238;49.082;9.102;2024-03-02T08:30:12;6.80;99.90
27890;DHT22;15238;49.082;9.102;2024-03-02T08:32:13;6.90;99.90
27890;DHT22;15238;49.082;9.102;2024-03-02T08:34:13;6.90;99.90
27890;DHT22;15238;49.082;9.102;2024-03-02T08:36:14;6.90;99.90
27890;DHT22;15238;49.082;9.102;2024-03-02T08:38:15;7.00;99.90
27890;DHT22;15238;49.082;9.102;2024-03-02T08:40:15;7.10;99.90
27890;DHT22;15238;49.082;9.102;2024-03-02T08:42:16;7.30;99.90
27890;DHT22;15238;49.082;9.102;2024-03-02T08:44:17;7.50;99.90
27890;DHT22;15238;49.082;9.102;2024-03-02T08:46:18;7.60;99.90
27890;DHT22;15238;49.082;9.102;2024-03-02T08:48:18;7.80;99.90
27890;DHT22;15238;49.082;9.102;2024-03-02T08:50:21;8.00;99.90
27890;DHT22;15238;49.082;9.102;2024-03-02T08:52:21;8.20;99.90
27890;DHT22;15238;49.082;9.102;2024-03-02T08:54:22;8.50;99.90
27890;DHT22;15238;49.082;9.102;2024-03-02T08:56:22;8.60;99.90
27890;DHT22;15238;49.082;9.102;2024-03-02T08:58:24;8.90;99.90
27890;DHT22;15238;49.082;9.102;2024-03-02T09:00:25;9.10;99.90
27890;DHT22;15238;49.082;9.102;2024-03-02T09:02:25;9.30;99.90
27890;DHT22;15238;49.082;9.102;2024-03-02T09:04:26;9.50;99.90
27890;DHT22;15238;49.082;9.102;2024-03-02T09:06:26;9.60;99.90
27890;DHT22;15238;49.082;9.102;2024-03-02T09:08:27;9.70;99.90
27890;DHT22;15238;49.082;9.102;2024-03-02T09:10:27;9.80;99.90
27890;DHT22;15238;49.082;9.102;2024-03-02T09:12:28;9.90;99.90
27890;DHT22;15238;49.082;9.102;2024-03-02T09:14:28;10.00;99.90
27890;DHT22;15238;49.082;9.102;2024-03-02T09:16:29;10.10;99.90
27890;DHT22;15238;49.082;9.102;2024-03-02T09:18:31;10.20;99.90
27890;DHT22;15238;49.082;9.102;2024-03-02T09:20:32;10.30;99.90
27890;DHT22;15238;49.082;9.102;2024-03-02T09:22:32;10.30;99.90
27890;DHT22;15238;49.082;9.102;2024-03-02T09:24:32;10.30;99.90
27890;DHT22;15238;49.082;9.102;2024-03-02T09:26:36;10.40;99.90
27890;DHT22;15238;49.082;9.102;2024-03-02T09:28:36;10.50;99.90
27890;DHT22;15238;49.082;9.102;2024-03-02T09:30:37;10.40;99.90
27890;DHT22;15238;49.082;9.102;2024-03-02T09:32:37;10.50;99.90
27890;DHT22;15238;49.082;9.102;2024-03-02T09:34:38;10.60;99.90
27890;DHT22;15238;49.082;9.102;2024-03-02T09:36:38;10.60;99.90
27890;DHT22;15238;49.082;9.102;2024-03-02T09:38:39;10.70;99.90
27890;DHT22;15238;49.082;9.102;2024-03-02T09:40:41;10.80;99.90
27890;DHT22;15238;49.082;9.102;2024-03-02T09:42:42;10.80;99.90
27890;DHT22;15238;49.082;9.102;2024-03-02T09:44:43;10.90;99.90
27890;DHT22;15238;49.082;9.102;2024-03-02T09:46:44;11.00;99.90
27890;DHT22;15238;49.082;9.102;2024-03-02T09:48:45;11.10;99.90
27890;DHT22;15238;49.082;9.102;2024-03-02T09:50:46;11.10;99.90
27890;DHT22;15238;49.082;9.102;2024-03-02T09:52:49;11.20;99.90
27890;DHT22;15238;49.082;9.102;2024-03-02T09:54:51;11.30;99.90
27890;DHT22;15238;49.082;9.102;2024-03-02T09:56:51;11.40;99.90
27890;DHT22;15238;49.082;9.102;2024-03-02T09:58:52;11.40;99.90
27890;DHT22;15238;49.082;9.102;2024-03-02T10:00:53;11.50;99.90
27890;DHT22;15238;49.082;9.102;2024-03-02T10:02:53;11.50;99.90
27890;DHT22;15238;49.082;9.102;2024-03-02T10:04:55;11.60;99.90
27890;DHT22;15238;49.082;9.102;2024-03-02T10:07:15;11.70;99.90
27890;DHT22;15238;49.082;9.102;2024-03-02T10:09:27;11.70;99.90
27890;DHT22;15238;49.082;9.102;2024-03-02T10:11:33;11.80;99.90
27890;DHT22;15238;49.082;9.102;2024-03-02T10:13:35;11.60;99.90
27890;DHT22;15238;49.082;9.102;2024-03-02T10:15:42;11.70;99.90
27890;DHT22;15238;49.082;9.102;2024-03-02T10:17:42;11.80;99.90
27890;DHT22;15238;49.082;9.102;2024-03-02T10:19:46;12.00;99.90
27890;DHT22;15238;49.082;9.102;2024-03-02T10:21:48;12.10;99.90
27890;DHT22;15238;49.082;9.102;2024-03-02T10:23:52;12.10;99.90
27890;DHT22;15238;49.082;9.102;2024-03-02T10:25:52;12.10;99.90
27890;DHT22;15238;49.082;9.102;2024-03-02T10:27:59;12.10;99.90
27890;DHT22;15238;49.082;9.102;2024-03-02T10:30:02;12.20;99.90
27890;DHT22;15238;49.082;9.102;2024-03-02T10:32:03;12.30;99.90
27890;DHT22;15238;49.082;9.102;2024-03-02T10:34:05;12.40;99.90
27890;DHT22;15238;49.082;9.102;2024-03-02T10:36:05;12.40;99.90
27890;DHT22;15238;49.082;9.102;2024-03-02T10:38:06;12.50;99.90
27890;DHT22;15238;49.082;9.102;2024-03-02T10:40:07;12.50;99.90
27890;DHT22;15238;49.082;9.102;2024-03-02T10:42:09;12.60;99.90
27890;DHT22;15238;49.082;9.102;2024-03-02T10:44:09;12.60;99.90
27890;DHT22;15238;49.082;9.102;2024-03-02T10:46:11;12.60;99.90
27890;DHT22;15238;49.082;9.102;2024-03-02T10:48:12;12.60;99.90
27890;DHT22;15238;49.082;9.102;2024-03-02T10:50:13;12.60;99.90
27890;DHT22;15238;49.082;9.102;2024-03-02T10:52:13;12.60;99.90
27890;DHT22;15238;49.082;9.102;2024-03-02T10:54:14;12.70;99.90
27890;DHT22;15238;49.082;9.102;2024-03-02T10:56:22;12.80;99.90
27890;DHT22;15238;49.082;9.102;2024-03-02T10:58:32;12.90;99.90
27890;DHT22;15238;49.082;9.102;2024-03-02T11:00:34;12.90;99.90
27890;DHT22;15238;49.082;9.102;2024-03-02T11:02:36;13.00;99.90
27890;DHT22;15238;49.082;9.102;2024-03-02T11:04:39;13.00;99.90
27890;DHT22;15238;49.082;9.102;2024-03-02T11:06:51;13.00;99.90
27890;DHT22;15238;49.082;9.102;2024-03-02T11:08:53;13.10;99.90
27890;DHT22;15238;49.082;9.102;2024-03-02T11:11:06;13.10;99.90
27890;DHT22;15238;49.082;9.102;2024-03-02T11:13:12;13.20;99.90
27890;DHT22;15238;49.082;9.102;2024-03-02T11:15:18;13.20;99.90
27890;DHT22;15238;49.082;9.102;2024-03-02T11:17:20;13.20;99.90
27890;DHT22;15238;49.082;9.102;2024-03-02T11:19:21;13.30;99.90
27890;DHT22;15238;49.082;9.102;2024-03-02T11:21:22;13.40;99.90
27890;DHT22;15238;49.082;9.102;2024-03-02T11:23:32;13.40;99.90
27890;DHT22;15238;49.082;9.102;2024-03-02T11:25:33;13.40;99.90
27890;DHT22;15238;49.082;9.102;2024-03-02T11:29:46;13.60;99.90
27890;DHT22;15238;49.082;9.102;2024-03-02T11:31:59;13.60;99.90
27890;DHT22;15238;49.082;9.102;2024-03-02T11:34:18;13.70;99.90
27890;DHT22;15238;49.082;9.102;2024-03-02T11:36:29;13.70;99.90
27890;DHT22;15238;49.082;9.102;2024-03-02T11:38:31;13.70;99.90
27890;DHT22;15238;49.082;9.102;2024-03-02T11:40:33;13.80;99.90
27890;DHT22;15238;49.082;9.102;2024-03-02T11:42:33;13.80;99.90
27890;DHT22;15238;49.082;9.102;2024-03-02T11:44:34;13.90;99.90
27890;DHT22;15238;49.082;9.102;2024-03-02T11:46:35;13.90;99.90
27890;DHT22;15238;49.082;9.102;2024-03-02T11:48:38;14.00;99.90
27890;DHT22;15238;49.082;9.102;2024-03-02T11:50:46;14.10;99.90
27890;DHT22;15238;49.082;9.102;2024-03-02T11:52:47;14.10;99.90
27890;DHT22;15238;49.082;9.102;2024-03-02T11:54:48;14.20;99.90
27890;DHT22;15238;49.082;9.102;2024-03-02T11:56:49;14.20;99.90
27890;DHT22;15238;49.082;9.102;2024-03-02T11:58:53;14.30;99.90
27890;DHT22;15238;49.082;9.102;2024-03-02T12:00:54;14.20;99.90
27890;DHT22;15238;49.082;9.102;2024-03-02T12:03:07;14.20;99.90
27890;DHT22;15238;49.082;9.102;2024-03-02T12:05:09;14.20;99.90
27890;DHT22;15238;49.082;9.102;2024-03-02T12:07:10;14.10;99.90
27890;DHT22;15238;49.082;9.102;2024-03-02T12:09:10;14.20;99.90
27890;DHT22;15238;49.082;9.102;2024-03-02T12:11:15;14.30;99.90
27890;DHT22;15238;49.082;9.102;2024-03-02T12:13:15;14.30;99.90
27890;DHT22;15238;49.082;9.102;2024-03-02T12:15:16;14.40;99.90
27890;DHT22;15238;49.082;9.102;2024-03-02T12:17:16;14.40;99.90
27890;DHT22;15238;49.082;9.102;2024-03-02T12:19:20;14.50;99.90
27890;DHT22;15238;49.082;9.102;2024-03-02T12:21:21;14.50;99.90
27890;DHT22;15238;49.082;9.102;2024-03-02T12:23:24;14.60;99.90
27890;DHT22;15238;49.082;9.102;2024-03-02T12:25:26;14.60;99.90
27890;DHT22;15238;49.082;9.102;2024-03-02T12:27:30;14.70;99.90
27890;DHT22;15238;49.082;9.102;2024-03-02T12:29:30;14.70;99.90
27890;DHT22;15238;49.082;9.102;2024-03-02T12:31:31;14.70;99.90
27890;DHT22;15238;49.082;9.102;2024-03-02T12:33:32;14.80;99.90
27890;DHT22;15238;49.082;9.102;2024-03-02T12:35:33;14.80;99.90
27890;DHT22;15238;49.082;9.102;2024-03-02T12:37:37;14.90;99.90
27890;DHT22;15238;49.082;9.102;2024-03-02T12:39:45;14.90;99.90
27890;DHT22;15238;49.082;9.102;2024-03-02T12:41:46;15.00;99.70
27890;DHT22;15238;49.082;9.102;2024-03-02T12:43:47;15.00;99.60
27890;DHT22;15238;49.082;9.102;2024-03-02T12:45:47;15.10;99.50
27890;DHT22;15238;49.082;9.102;2024-03-02T12:47:48;15.10;99.70
27890;DHT22;15238;49.082;9.102;2024-03-02T12:49:49;15.10;99.10
27890;DHT22;15238;49.082;9.102;2024-03-02T12:51:49;15.00;98.20
27890;DHT22;15238;49.082;9.102;2024-03-02T12:53:55;15.00;99.00
27890;DHT22;15238;49.082;9.102;2024-03-02T12:55:56;15.20;97.50
27890;DHT22;15238;49.082;9.102;2024-03-02T12:57:57;15.20;97.60
27890;DHT22;15238;49.082;9.102;2024-03-02T13:00:09;15.30;97.70
27890;DHT22;15238;49.082;9.102;2024-03-02T13:02:17;15.30;98.00
27890;DHT22;15238;49.082;9.102;2024-03-02T13:04:22;15.30;97.90